sensor_id;sensor_type;location;lat;lon;timestamp;P1;durP1;ratioP1;P2;durP2;ratioP2
5585;SDS011;2815;54.094;12.112;2022-10-16T00:02:24;8.43;;;3.80;;
5585;SDS011;2815;54.094;12.112;2022-10-16T00:04:52;4.53;;;3.45;;
5585;SDS011;2815;54.094;12.112;2022-10-16T00:07:21;5.70;;;4.15;;
5585;SDS011;2815;54.094;12.112;2022-10-16T00:09:49;6.70;;;3.47;;
5585;SDS011;2815;54.094;12.112;2022-10-16T00:12:17;4.93;;;3.58;;
5585;SDS011;2815;54.094;12.112;2022-10-16T00:14:46;8.82;;;3.92;;
5585;SDS011;2815;54.094;12.112;2022-10-16T00:17:14;4.82;;;3.40;;
5585;SDS011;2815;54.094;12.112;2022-10-16T00:19:42;7.25;;;3.50;;
5585;SDS011;2815;54.094;12.112;2022-10-16T00:22:10;5.82;;;3.65;;
5585;SDS011;2815;54.094;12.112;2022-10-16T00:24:38;5.70;;;4.05;;
5585;SDS011;2815;54.094;12.112;2022-10-16T00:27:05;5.38;;;3.90;;
5585;SDS011;2815;54.094;12.112;2022-10-16T00:29:33;5.47;;;4.28;;
5585;SDS011;2815;54.094;12.112;2022-10-16T00:32:03;5.30;;;3.78;;
5585;SDS011;2815;54.094;12.112;2022-10-16T00:34:31;5.53;;;4.00;;
5585;SDS011;2815;54.094;12.112;2022-10-16T00:36:59;6.40;;;4.50;;
5585;SDS011;2815;54.094;12.112;2022-10-16T00:39:26;6.82;;;3.88;;
5585;SDS011;2815;54.094;12.112;2022-10-16T00:41:54;6.03;;;4.35;;
5585;SDS011;2815;54.094;12.112;2022-10-16T00:47:13;8.40;;;4.70;;
5585;SDS011;2815;54.094;12.112;2022-10-16T00:49:45;7.07;;;4.32;;
5585;SDS011;2815;54.094;12.112;2022-10-16T00:52:14;6.10;;;4.45;;
5585;SDS011;2815;54.094;12.112;2022-10-16T00:54:42;8.48;;;4.80;;
5585;SDS011;2815;54.094;12.112;2022-10-16T00:57:10;8.90;;;5.00;;
5585;SDS011;2815;54.094;12.112;2022-10-16T00:59:38;6.45;;;5.05;;
5585;SDS011;2815;54.094;12.112;2022-10-16T01:02:08;6.45;;;4.65;;
5585;SDS011;2815;54.094;12.112;2022-10-16T01:04:41;7.78;;;4.82;;
5585;SDS011;2815;54.094;12.112;2022-10-16T01:07:12;9.35;;;4.68;;
5585;SDS011;2815;54.094;12.112;2022-10-16T01:12:15;6.38;;;4.32;;
5585;SDS011;2815;54.094;12.112;2022-10-16T01:14:53;5.93;;;4.35;;
5585;SDS011;2815;54.094;12.112;2022-10-16T01:17:22;8.27;;;4.60;;
5585;SDS011;2815;54.094;12.112;2022-10-16T01:20:00;7.28;;;5.22;;
5585;SDS011;2815;54.094;12.112;2022-10-16T01:22:33;8.48;;;4.80;;
5585;SDS011;2815;54.094;12.112;2022-10-16T01:25:09;6.85;;;4.88;;
5585;SDS011;2815;54.094;12.112;2022-10-16T01:27:41;6.93;;;4.95;;
5585;SDS011;2815;54.094;12.112;2022-10-16T01:30:10;6.53;;;4.97;;
5585;SDS011;2815;54.094;12.112;2022-10-16T01:32:41;7.05;;;4.88;;
5585;SDS011;2815;54.094;12.112;2022-10-16T01:35:14;6.90;;;4.68;;
5585;SDS011;2815;54.094;12.112;2022-10-16T01:37:48;7.18;;;5.05;;
5585;SDS011;2815;54.094;12.112;2022-10-16T01:40:19;7.70;;;4.97;;
5585;SDS011;2815;54.094;12.112;2022-10-16T01:42:49;6.53;;;4.43;;
5585;SDS011;2815;54.094;12.112;2022-10-16T01:45:20;5.70;;;4.70;;
5585;SDS011;2815;54.094;12.112;2022-10-16T01:47:49;7.22;;;4.78;;
5585;SDS011;2815;54.094;12.112;2022-10-16T01:50:18;7.97;;;5.10;;
5585;SDS011;2815;54.094;12.112;2022-10-16T01:52:48;7.00;;;4.90;;
5585;SDS011;2815;54.094;12.112;2022-10-16T01:55:19;10.85;;;5.38;;
5585;SDS011;2815;54.094;12.112;2022-10-16T01:57:51;5.90;;;4.82;;
5585;SDS011;2815;54.094;12.112;2022-10-16T02:00:19;7.32;;;4.90;;
5585;SDS011;2815;54.094;12.112;2022-10-16T02:02:49;8.48;;;5.15;;
5585;SDS011;2815;54.094;12.112;2022-10-16T02:05:19;8.45;;;5.75;;
5585;SDS011;2815;54.094;12.112;2022-10-16T02:07:49;9.20;;;6.03;;
5585;SDS011;2815;54.094;12.112;2022-10-16T02:10:17;8.15;;;5.30;;
5585;SDS011;2815;54.094;12.112;2022-10-16T02:12:45;10.52;;;6.57;;
5585;SDS011;2815;54.094;12.112;2022-10-16T02:15:19;8.73;;;6.10;;
5585;SDS011;2815;54.094;12.112;2022-10-16T02:17:47;9.93;;;6.18;;
5585;SDS011;2815;54.094;12.112;2022-10-16T02:20:15;8.80;;;5.65;;
5585;SDS011;2815;54.094;12.112;2022-10-16T02:22:45;10.25;;;5.55;;
5585;SDS011;2815;54.094;12.112;2022-10-16T02:25:15;6.38;;;4.43;;
5585;SDS011;2815;54.094;12.112;2022-10-16T02:27:47;8.57;;;5.15;;
5585;SDS011;2815;54.094;12.112;2022-10-16T02:30:21;11.30;;;4.60;;
5585;SDS011;2815;54.094;12.112;2022-10-16T02:32:52;7.05;;;4.75;;
5585;SDS011;2815;54.094;12.112;2022-10-16T02:35:20;8.30;;;4.35;;
5585;SDS011;2815;54.094;12.112;2022-10-16T02:37:49;6.97;;;4.20;;
5585;SDS011;2815;54.094;12.112;2022-10-16T02:40:18;6.35;;;3.65;;
5585;SDS011;2815;54.094;12.112;2022-10-16T02:42:51;7.07;;;4.03;;
5585;SDS011;2815;54.094;12.112;2022-10-16T02:45:21;8.25;;;4.15;;
5585;SDS011;2815;54.094;12.112;2022-10-16T02:47:50;10.77;;;3.40;;
5585;SDS011;2815;54.094;12.112;2022-10-16T02:50:17;7.38;;;4.03;;
5585;SDS011;2815;54.094;12.112;2022-10-16T02:52:45;12.48;;;4.45;;
5585;SDS011;2815;54.094;12.112;2022-10-16T02:55:13;8.50;;;4.13;;
5585;SDS011;2815;54.094;12.112;2022-10-16T02:57:44;7.65;;;4.18;;
5585;SDS011;2815;54.094;12.112;2022-10-16T03:00:13;6.90;;;4.18;;
5585;SDS011;2815;54.094;12.112;2022-10-16T03:02:43;6.63;;;4.25;;
5585;SDS011;2815;54.094;12.112;2022-10-16T03:05:11;6.57;;;4.20;;
5585;SDS011;2815;54.094;12.112;2022-10-16T03:07:39;8.48;;;4.32;;
5585;SDS011;2815;54.094;12.112;2022-10-16T03:10:07;8.10;;;4.45;;
5585;SDS011;2815;54.094;12.112;2022-10-16T03:12:35;7.10;;;4.35;;
5585;SDS011;2815;54.094;12.112;2022-10-16T03:15:03;6.88;;;3.70;;
5585;SDS011;2815;54.094;12.112;2022-10-16T03:17:33;7.70;;;4.43;;
5585;SDS011;2815;54.094;12.112;2022-10-16T03:20:02;5.68;;;4.00;;
5585;SDS011;2815;54.094;12.112;2022-10-16T03:22:31;5.90;;;4.20;;
5585;SDS011;2815;54.094;12.112;2022-10-16T03:24:58;8.18;;;4.63;;
5585;SDS011;2815;54.094;12.112;2022-10-16T03:27:26;6.28;;;4.00;;
5585;SDS011;2815;54.094;12.112;2022-10-16T03:29:55;7.40;;;4.78;;
5585;SDS011;2815;54.094;12.112;2022-10-16T03:32:23;5.90;;;3.95;;
5585;SDS011;2815;54.094;12.112;2022-10-16T03:34:51;6.10;;;4.07;;
5585;SDS011;2815;54.094;12.112;2022-10-16T03:37:22;7.53;;;3.58;;
5585;SDS011;2815;54.094;12.112;2022-10-16T03:39:50;5.93;;;3.90;;
5585;SDS011;2815;54.094;12.112;2022-10-16T03:42:18;8.05;;;3.83;;
5585;SDS011;2815;54.094;12.112;2022-10-16T03:44:46;6.35;;;4.05;;
5585;SDS011;2815;54.094;12.112;2022-10-16T03:47:14;8.35;;;3.72;;
5585;SDS011;2815;54.094;12.112;2022-10-16T03:49:47;7.15;;;3.88;;
5585;SDS011;2815;54.094;12.112;2022-10-16T03:52:15;5.13;;;3.60;;
5585;SDS011;2815;54.094;12.112;2022-10-16T03:54:47;5.82;;;3.70;;
5585;SDS011;2815;54.094;12.112;2022-10-16T03:57:15;7.10;;;3.67;;
5585;SDS011;2815;54.094;12.112;2022-10-16T03:59:43;9.43;;;4.32;;
5585;SDS011;2815;54.094;12.112;2022-10-16T04:02:10;9.77;;;3.38;;
5585;SDS011;2815;54.094;12.112;2022-10-16T04:04:38;5.93;;;3.38;;
5585;SDS011;2815;54.094;12.112;2022-10-16T04:07:06;8.70;;;3.80;;
5585;SDS011;2815;54.094;12.112;2022-10-16T04:09:34;5.53;;;3.53;;
5585;SDS011;2815;54.094;12.112;2022-10-16T04:12:03;9.40;;;3.40;;
5585;SDS011;2815;54.094;12.112;2022-10-16T04:14:31;6.68;;;3.70;;
5585;SDS011;2815;54.094;12.112;2022-10-16T04:16:59;5.40;;;3.42;;
5585;SDS011;2815;54.094;12.112;2022-10-16T04:19:27;4.90;;;3.50;;
5585;SDS011;2815;54.094;12.112;2022-10-16T04:21:55;5.97;;;3.55;;
5585;SDS011;2815;54.094;12.112;2022-10-16T04:24:22;4.28;;;3.17;;
5585;SDS011;2815;54.094;12.112;2022-10-16T04:26:50;6.03;;;3.50;;
5585;SDS011;2815;54.094;12.112;2022-10-16T04:29:20;7.47;;;3.47;;
5585;SDS011;2815;54.094;12.112;2022-10-16T04:31:47;9.43;;;3.50;;
5585;SDS011;2815;54.094;12.112;2022-10-16T04:34:15;6.40;;;3.28;;
5585;SDS011;2815;54.094;12.112;2022-10-16T04:36:43;4.75;;;3.20;;
5585;SDS011;2815;54.094;12.112;2022-10-16T04:39:11;6.18;;;3.30;;
5585;SDS011;2815;54.094;12.112;2022-10-16T04:41:39;7.45;;;3.65;;
5585;SDS011;2815;54.094;12.112;2022-10-16T04:44:07;8.93;;;3.10;;
5585;SDS011;2815;54.094;12.112;2022-10-16T04:46:36;5.28;;;3.50;;
5585;SDS011;2815;54.094;12.112;2022-10-16T04:49:04;7.53;;;3.63;;
5585;SDS011;2815;54.094;12.112;2022-10-16T04:51:32;9.68;;;3.97;;
5585;SDS011;2815;54.094;12.112;2022-10-16T04:54:00;13.35;;;4.00;;
5585;SDS011;2815;54.094;12.112;2022-10-16T04:56:28;10.32;;;3.70;;
5585;SDS011;2815;54.094;12.112;2022-10-16T04:58:55;9.02;;;3.88;;
5585;SDS011;2815;54.094;12.112;2022-10-16T05:01:23;8.68;;;3.45;;
5585;SDS011;2815;54.094;12.112;2022-10-16T05:03:52;5.35;;;3.42;;
5585;SDS011;2815;54.094;12.112;2022-10-16T05:06:20;7.45;;;3.60;;
5585;SDS011;2815;54.094;12.112;2022-10-16T05:08:48;6.18;;;2.38;;
5585;SDS011;2815;54.094;12.112;2022-10-16T05:11:16;6.65;;;3.50;;
5585;SDS011;2815;54.094;12.112;2022-10-16T05:13:44;4.63;;;3.13;;
5585;SDS011;2815;54.094;12.112;2022-10-16T05:16:12;5.40;;;3.25;;
5585;SDS011;2815;54.094;12.112;2022-10-16T05:18:41;5.43;;;3.55;;
5585;SDS011;2815;54.094;12.112;2022-10-16T05:21:10;5.35;;;3.05;;
5585;SDS011;2815;54.094;12.112;2022-10-16T05:23:38;4.60;;;3.30;;
5585;SDS011;2815;54.094;12.112;2022-10-16T05:26:06;4.68;;;3.13;;
5585;SDS011;2815;54.094;12.112;2022-10-16T05:28:34;9.40;;;3.60;;
5585;SDS011;2815;54.094;12.112;2022-10-16T05:31:03;4.75;;;3.45;;
5585;SDS011;2815;54.094;12.112;2022-10-16T05:33:32;7.53;;;2.70;;
5585;SDS011;2815;54.094;12.112;2022-10-16T05:36:00;6.10;;;3.25;;
5585;SDS011;2815;54.094;12.112;2022-10-16T05:38:30;4.10;;;2.67;;
5585;SDS011;2815;54.094;12.112;2022-10-16T05:40:58;6.50;;;2.60;;
5585;SDS011;2815;54.094;12.112;2022-10-16T05:43:26;5.75;;;2.78;;
5585;SDS011;2815;54.094;12.112;2022-10-16T05:45:55;4.35;;;2.70;;
5585;SDS011;2815;54.094;12.112;2022-10-16T05:48:23;6.22;;;2.65;;
5585;SDS011;2815;54.094;12.112;2022-10-16T05:50:58;5.63;;;2.63;;
5585;SDS011;2815;54.094;12.112;2022-10-16T05:53:27;4.70;;;2.45;;
5585;SDS011;2815;54.094;12.112;2022-10-16T05:55:57;4.55;;;2.78;;
5585;SDS011;2815;54.094;12.112;2022-10-16T05:58:27;4.28;;;2.72;;
5585;SDS011;2815;54.094;12.112;2022-10-16T06:00:56;7.78;;;2.67;;
5585;SDS011;2815;54.094;12.112;2022-10-16T06:03:25;6.80;;;3.08;;
5585;SDS011;2815;54.094;12.112;2022-10-16T06:05:53;5.72;;;2.67;;
5585;SDS011;2815;54.094;12.112;2022-10-16T06:08:22;4.30;;;2.20;;
5585;SDS011;2815;54.094;12.112;2022-10-16T06:11:01;6.90;;;2.40;;
5585;SDS011;2815;54.094;12.112;2022-10-16T06:13:29;4.05;;;2.13;;
5585;SDS011;2815;54.094;12.112;2022-10-16T06:15:57;3.97;;;2.30;;
5585;SDS011;2815;54.094;12.112;2022-10-16T06:18:26;8.23;;;2.13;;
5585;SDS011;2815;54.094;12.112;2022-10-16T06:20:54;4.97;;;2.17;;
5585;SDS011;2815;54.094;12.112;2022-10-16T06:23:23;5.47;;;2.13;;
5585;SDS011;2815;54.094;12.112;2022-10-16T06:25:51;3.50;;;2.30;;
5585;SDS011;2815;54.094;12.112;2022-10-16T06:28:20;3.38;;;2.03;;
5585;SDS011;2815;54.094;12.112;2022-10-16T06:30:48;2.58;;;1.80;;
5585;SDS011;2815;54.094;12.112;2022-10-16T06:33:16;3.65;;;2.10;;
5585;SDS011;2815;54.094;12.112;2022-10-16T06:35:43;3.47;;;2.20;;
5585;SDS011;2815;54.094;12.112;2022-10-16T06:38:11;3.35;;;2.03;;
5585;SDS011;2815;54.094;12.112;2022-10-16T06:40:39;4.88;;;2.00;;
5585;SDS011;2815;54.094;12.112;2022-10-16T06:43:07;4.05;;;2.10;;
5585;SDS011;2815;54.094;12.112;2022-10-16T06:45:36;3.65;;;1.67;;
5585;SDS011;2815;54.094;12.112;2022-10-16T06:48:04;3.22;;;2.05;;
5585;SDS011;2815;54.094;12.112;2022-10-16T06:50:32;3.95;;;2.10;;
5585;SDS011;2815;54.094;12.112;2022-10-16T06:53:00;3.45;;;1.80;;
5585;SDS011;2815;54.094;12.112;2022-10-16T06:55:28;6.78;;;2.53;;
5585;SDS011;2815;54.094;12.112;2022-10-16T06:57:55;5.18;;;1.95;;
5585;SDS011;2815;54.094;12.112;2022-10-16T07:00:23;3.55;;;1.98;;
5585;SDS011;2815;54.094;12.112;2022-10-16T07:02:53;4.28;;;1.30;;
5585;SDS011;2815;54.094;12.112;2022-10-16T07:05:20;4.82;;;1.80;;
5585;SDS011;2815;54.094;12.112;2022-10-16T07:07:48;1.52;;;1.27;;
5585;SDS011;2815;54.094;12.112;2022-10-16T07:10:16;1.80;;;1.50;;
5585;SDS011;2815;54.094;12.112;2022-10-16T07:12:44;2.15;;;1.65;;
5585;SDS011;2815;54.094;12.112;2022-10-16T07:15:12;3.22;;;1.55;;
5585;SDS011;2815;54.094;12.112;2022-10-16T07:17:40;4.72;;;1.58;;
5585;SDS011;2815;54.094;12.112;2022-10-16T07:20:09;5.88;;;1.67;;
5585;SDS011;2815;54.094;12.112;2022-10-16T07:22:37;2.97;;;1.83;;
5585;SDS011;2815;54.094;12.112;2022-10-16T07:25:06;4.25;;;1.50;;
5585;SDS011;2815;54.094;12.112;2022-10-16T07:27:34;3.95;;;1.67;;
5585;SDS011;2815;54.094;12.112;2022-10-16T07:30:07;3.08;;;1.55;;
5585;SDS011;2815;54.094;12.112;2022-10-16T07:32:36;4.53;;;1.80;;
5585;SDS011;2815;54.094;12.112;2022-10-16T07:35:04;5.13;;;1.50;;
5585;SDS011;2815;54.094;12.112;2022-10-16T07:37:34;4.22;;;1.70;;
5585;SDS011;2815;54.094;12.112;2022-10-16T07:40:02;4.75;;;1.42;;
5585;SDS011;2815;54.094;12.112;2022-10-16T07:42:31;3.97;;;1.50;;
5585;SDS011;2815;54.094;12.112;2022-10-16T07:44:58;4.00;;;1.30;;
5585;SDS011;2815;54.094;12.112;2022-10-16T07:47:26;2.50;;;1.40;;
5585;SDS011;2815;54.094;12.112;2022-10-16T07:49:55;2.55;;;1.40;;
5585;SDS011;2815;54.094;12.112;2022-10-16T07:52:23;4.53;;;1.40;;
5585;SDS011;2815;54.094;12.112;2022-10-16T07:54:52;4.03;;;1.17;;
5585;SDS011;2815;54.094;12.112;2022-10-16T07:57:25;3.17;;;1.50;;
5585;SDS011;2815;54.094;12.112;2022-10-16T07:59:54;2.78;;;1.50;;
5585;SDS011;2815;54.094;12.112;2022-10-16T08:02:22;2.63;;;1.20;;
5585;SDS011;2815;54.094;12.112;2022-10-16T08:04:49;5.22;;;1.60;;
5585;SDS011;2815;54.094;12.112;2022-10-16T08:07:17;5.20;;;1.42;;
5585;SDS011;2815;54.094;12.112;2022-10-16T08:09:48;6.20;;;1.38;;
5585;SDS011;2815;54.094;12.112;2022-10-16T08:12:18;2.58;;;1.17;;
5585;SDS011;2815;54.094;12.112;2022-10-16T08:14:45;4.38;;;1.48;;
5585;SDS011;2815;54.094;12.112;2022-10-16T08:17:14;3.83;;;1.45;;
5585;SDS011;2815;54.094;12.112;2022-10-16T08:19:44;5.43;;;1.70;;
5585;SDS011;2815;54.094;12.112;2022-10-16T08:22:12;4.03;;;1.70;;
5585;SDS011;2815;54.094;12.112;2022-10-16T08:24:40;4.03;;;1.70;;
5585;SDS011;2815;54.094;12.112;2022-10-16T08:27:08;3.38;;;0.82;;
5585;SDS011;2815;54.094;12.112;2022-10-16T08:29:37;2.58;;;1.20;;
5585;SDS011;2815;54.094;12.112;2022-10-16T08:32:05;7.07;;;1.80;;
5585;SDS011;2815;54.094;12.112;2022-10-16T08:34:33;3.67;;;1.50;;
5585;SDS011;2815;54.094;12.112;2022-10-16T08:37:01;3.40;;;1.35;;
5585;SDS011;2815;54.094;12.112;2022-10-16T08:39:29;8.30;;;1.70;;
5585;SDS011;2815;54.094;12.112;2022-10-16T08:42:01;2.25;;;1.15;;
5585;SDS011;2815;54.094;12.112;2022-10-16T08:44:44;2.80;;;1.20;;
5585;SDS011;2815;54.094;12.112;2022-10-16T08:47:22;2.35;;;1.20;;
5585;SDS011;2815;54.094;12.112;2022-10-16T08:49:55;5.15;;;1.55;;
5585;SDS011;2815;54.094;12.112;2022-10-16T08:52:25;3.38;;;1.10;;
5585;SDS011;2815;54.094;12.112;2022-10-16T08:54:57;10.45;;;1.83;;
5585;SDS011;2815;54.094;12.112;2022-10-16T08:57:25;5.13;;;1.40;;
5585;SDS011;2815;54.094;12.112;2022-10-16T08:59:57;2.67;;;1.27;;
5585;SDS011;2815;54.094;12.112;2022-10-16T09:02:29;2.17;;;1.10;;
5585;SDS011;2815;54.094;12.112;2022-10-16T09:07:53;3.53;;;1.38;;
5585;SDS011;2815;54.094;12.112;2022-10-16T09:10:33;2.55;;;1.55;;
5585;SDS011;2815;54.094;12.112;2022-10-16T09:13:10;2.72;;;1.75;;
5585;SDS011;2815;54.094;12.112;2022-10-16T09:15:47;3.22;;;1.00;;
5585;SDS011;2815;54.094;12.112;2022-10-16T09:18:21;4.85;;;1.67;;
5585;SDS011;2815;54.094;12.112;2022-10-16T09:20:59;4.25;;;1.15;;
5585;SDS011;2815;54.094;12.112;2022-10-16T09:23:30;3.10;;;1.05;;
5585;SDS011;2815;54.094;12.112;2022-10-16T09:25:58;3.95;;;1.20;;
5585;SDS011;2815;54.094;12.112;2022-10-16T09:28:26;3.80;;;1.17;;
5585;SDS011;2815;54.094;12.112;2022-10-16T09:30:55;2.75;;;1.10;;
5585;SDS011;2815;54.094;12.112;2022-10-16T09:33:25;4.85;;;1.25;;
5585;SDS011;2815;54.094;12.112;2022-10-16T09:35:57;4.40;;;1.15;;
5585;SDS011;2815;54.094;12.112;2022-10-16T09:38:26;2.90;;;1.08;;
5585;SDS011;2815;54.094;12.112;2022-10-16T09:40:55;2.17;;;1.17;;
5585;SDS011;2815;54.094;12.112;2022-10-16T09:43:30;2.30;;;0.68;;
5585;SDS011;2815;54.094;12.112;2022-10-16T09:46:03;2.58;;;0.95;;
5585;SDS011;2815;54.094;12.112;2022-10-16T09:48:35;3.45;;;1.02;;
5585;SDS011;2815;54.094;12.112;2022-10-16T09:51:05;1.63;;;0.82;;
5585;SDS011;2815;54.094;12.112;2022-10-16T09:53:41;5.95;;;1.02;;
5585;SDS011;2815;54.094;12.112;2022-10-16T09:56:11;1.55;;;0.70;;
5585;SDS011;2815;54.094;12.112;2022-10-16T09:58:49;2.90;;;1.02;;
5585;SDS011;2815;54.094;12.112;2022-10-16T10:01:19;3.60;;;0.80;;
5585;SDS011;2815;54.094;12.112;2022-10-16T10:03:47;7.72;;;0.82;;
5585;SDS011;2815;54.094;12.112;2022-10-16T10:06:17;3.45;;;1.00;;
5585;SDS011;2815;54.094;12.112;2022-10-16T10:11:45;3.60;;;1.00;;
5585;SDS011;2815;54.094;12.112;2022-10-16T10:14:19;2.05;;;0.80;;
5585;SDS011;2815;54.094;12.112;2022-10-16T10:16:50;2.10;;;0.65;;
5585;SDS011;2815;54.094;12.112;2022-10-16T10:19:19;4.82;;;1.00;;
5585;SDS011;2815;54.094;12.112;2022-10-16T10:21:49;1.60;;;0.90;;
5585;SDS011;2815;54.094;12.112;2022-10-16T10:24:18;3.65;;;0.85;;
5585;SDS011;2815;54.094;12.112;2022-10-16T10:26:49;2.53;;;1.00;;
5585;SDS011;2815;54.094;12.112;2022-10-16T10:29:25;0.70;;;0.65;;
5585;SDS011;2815;54.094;12.112;2022-10-16T10:32:10;4.05;;;1.10;;
5585;SDS011;2815;54.094;12.112;2022-10-16T10:34:51;3.33;;;0.80;;
5585;SDS011;2815;54.094;12.112;2022-10-16T10:37:35;1.25;;;0.75;;
5585;SDS011;2815;54.094;12.112;2022-10-16T10:40:23;1.67;;;0.85;;
5585;SDS011;2815;54.094;12.112;2022-10-16T10:42:59;3.40;;;1.13;;
5585;SDS011;2815;54.094;12.112;2022-10-16T10:48:10;4.40;;;0.77;;
5585;SDS011;2815;54.094;12.112;2022-10-16T10:50:47;4.32;;;0.80;;
5585;SDS011;2815;54.094;12.112;2022-10-16T10:53:18;4.03;;;0.90;;
5585;SDS011;2815;54.094;12.112;2022-10-16T10:55:53;0.80;;;0.50;;
5585;SDS011;2815;54.094;12.112;2022-10-16T10:58:31;2.20;;;0.70;;
5585;SDS011;2815;54.094;12.112;2022-10-16T11:01:07;1.60;;;0.80;;
5585;SDS011;2815;54.094;12.112;2022-10-16T11:03:46;3.08;;;0.70;;
5585;SDS011;2815;54.094;12.112;2022-10-16T11:06:26;1.02;;;0.60;;
5585;SDS011;2815;54.094;12.112;2022-10-16T11:08:57;1.33;;;0.77;;
5585;SDS011;2815;54.094;12.112;2022-10-16T11:11:29;1.45;;;0.50;;
5585;SDS011;2815;54.094;12.112;2022-10-16T11:14:00;1.33;;;0.57;;
5585;SDS011;2815;54.094;12.112;2022-10-16T11:16:31;3.30;;;0.70;;
5585;SDS011;2815;54.094;12.112;2022-10-16T11:19:04;1.27;;;0.65;;
5585;SDS011;2815;54.094;12.112;2022-10-16T11:21:41;4.13;;;0.82;;
5585;SDS011;2815;54.094;12.112;2022-10-16T11:24:16;1.85;;;0.60;;
5585;SDS011;2815;54.094;12.112;2022-10-16T11:26:48;1.15;;;0.50;;
5585;SDS011;2815;54.094;12.112;2022-10-16T11:29:17;1.15;;;0.60;;
5585;SDS011;2815;54.094;12.112;2022-10-16T11:31:49;2.17;;;0.40;;
5585;SDS011;2815;54.094;12.112;2022-10-16T11:34:24;1.10;;;0.65;;
5585;SDS011;2815;54.094;12.112;2022-10-16T11:36:55;2.33;;;0.60;;
5585;SDS011;2815;54.094;12.112;2022-10-16T11:39:25;1.58;;;0.52;;
5585;SDS011;2815;54.094;12.112;2022-10-16T11:41:55;4.20;;;0.60;;
5585;SDS011;2815;54.094;12.112;2022-10-16T11:44:35;1.33;;;0.70;;
5585;SDS011;2815;54.094;12.112;2022-10-16T11:47:10;2.45;;;0.80;;
5585;SDS011;2815;54.094;12.112;2022-10-16T11:50:13;4.13;;;0.88;;
5585;SDS011;2815;54.094;12.112;2022-10-16T11:52:50;0.60;;;0.50;;
5585;SDS011;2815;54.094;12.112;2022-10-16T11:55:20;5.30;;;0.90;;
5585;SDS011;2815;54.094;12.112;2022-10-16T11:57:51;1.33;;;0.40;;
5585;SDS011;2815;54.094;12.112;2022-10-16T12:00:22;2.97;;;0.70;;
5585;SDS011;2815;54.094;12.112;2022-10-16T12:02:54;1.15;;;0.50;;
5585;SDS011;2815;54.094;12.112;2022-10-16T12:05:29;2.92;;;0.80;;
5585;SDS011;2815;54.094;12.112;2022-10-16T12:08:06;1.63;;;0.55;;
5585;SDS011;2815;54.094;12.112;2022-10-16T12:10:37;2.75;;;0.70;;
5585;SDS011;2815;54.094;12.112;2022-10-16T12:18:49;1.10;;;0.40;;
5585;SDS011;2815;54.094;12.112;2022-10-16T12:21:32;2.67;;;0.60;;
5585;SDS011;2815;54.094;12.112;2022-10-16T12:24:00;1.80;;;0.50;;
5585;SDS011;2815;54.094;12.112;2022-10-16T12:26:31;1.88;;;0.45;;
5585;SDS011;2815;54.094;12.112;2022-10-16T12:29:10;2.25;;;0.60;;
5585;SDS011;2815;54.094;12.112;2022-10-16T12:31:43;1.67;;;0.40;;
5585;SDS011;2815;54.094;12.112;2022-10-16T12:34:24;5.90;;;0.80;;
5585;SDS011;2815;54.094;12.112;2022-10-16T12:37:06;0.50;;;0.50;;
5585;SDS011;2815;54.094;12.112;2022-10-16T12:39:36;2.15;;;0.75;;
5585;SDS011;2815;54.094;12.112;2022-10-16T12:42:05;0.52;;;0.40;;
5585;SDS011;2815;54.094;12.112;2022-10-16T12:44:45;2.65;;;0.52;;
5585;SDS011;2815;54.094;12.112;2022-10-16T12:47:19;2.90;;;0.50;;
5585;SDS011;2815;54.094;12.112;2022-10-16T12:49:49;2.33;;;0.60;;
5585;SDS011;2815;54.094;12.112;2022-10-16T12:52:27;1.02;;;0.50;;
5585;SDS011;2815;54.094;12.112;2022-10-16T12:54:59;1.05;;;0.30;;
5585;SDS011;2815;54.094;12.112;2022-10-16T12:57:31;1.20;;;0.43;;
5585;SDS011;2815;54.094;12.112;2022-10-16T13:00:09;0.38;;;0.28;;
5585;SDS011;2815;54.094;12.112;2022-10-16T13:05:43;5.28;;;0.50;;
5585;SDS011;2815;54.094;12.112;2022-10-16T13:08:21;3.33;;;0.60;;
5585;SDS011;2815;54.094;12.112;2022-10-16T13:11:00;5.70;;;0.55;;
5585;SDS011;2815;54.094;12.112;2022-10-16T13:13:36;3.97;;;0.60;;
5585;SDS011;2815;54.094;12.112;2022-10-16T13:16:12;1.95;;;0.45;;
5585;SDS011;2815;54.094;12.112;2022-10-16T13:18:47;2.95;;;0.50;;
5585;SDS011;2815;54.094;12.112;2022-10-16T13:21:28;3.00;;;0.57;;
5585;SDS011;2815;54.094;12.112;2022-10-16T13:24:06;1.48;;;0.55;;
5585;SDS011;2815;54.094;12.112;2022-10-16T13:26:41;3.28;;;0.60;;
5585;SDS011;2815;54.094;12.112;2022-10-16T13:29:12;1.70;;;0.40;;
5585;SDS011;2815;54.094;12.112;2022-10-16T13:31:40;3.40;;;0.55;;
5585;SDS011;2815;54.094;12.112;2022-10-16T13:34:11;7.50;;;0.60;;
5585;SDS011;2815;54.094;12.112;2022-10-16T13:36:43;3.10;;;0.50;;
5585;SDS011;2815;54.094;12.112;2022-10-16T13:39:14;1.77;;;0.50;;
5585;SDS011;2815;54.094;12.112;2022-10-16T13:41:44;3.22;;;0.50;;
5585;SDS011;2815;54.094;12.112;2022-10-16T13:44:13;4.07;;;0.50;;
5585;SDS011;2815;54.094;12.112;2022-10-16T13:46:42;3.35;;;0.57;;
5585;SDS011;2815;54.094;12.112;2022-10-16T13:49:12;1.48;;;0.40;;
5585;SDS011;2815;54.094;12.112;2022-10-16T13:51:41;2.15;;;0.60;;
5585;SDS011;2815;54.094;12.112;2022-10-16T13:54:09;1.50;;;0.50;;
5585;SDS011;2815;54.094;12.112;2022-10-16T13:56:39;0.98;;;0.30;;
5585;SDS011;2815;54.094;12.112;2022-10-16T13:59:22;1.42;;;0.40;;
5585;SDS011;2815;54.094;12.112;2022-10-16T14:01:51;3.17;;;0.52;;
5585;SDS011;2815;54.094;12.112;2022-10-16T14:04:21;2.22;;;0.50;;
5585;SDS011;2815;54.094;12.112;2022-10-16T14:06:50;0.50;;;0.30;;
5585;SDS011;2815;54.094;12.112;2022-10-16T14:09:21;8.40;;;0.77;;
5585;SDS011;2815;54.094;12.112;2022-10-16T14:11:55;3.63;;;0.55;;
5585;SDS011;2815;54.094;12.112;2022-10-16T14:14:25;2.35;;;0.40;;
5585;SDS011;2815;54.094;12.112;2022-10-16T14:16:54;1.40;;;0.50;;
5585;SDS011;2815;54.094;12.112;2022-10-16T14:19:24;1.45;;;0.40;;
5585;SDS011;2815;54.094;12.112;2022-10-16T14:21:53;1.60;;;0.50;;
5585;SDS011;2815;54.094;12.112;2022-10-16T14:24:25;2.15;;;0.70;;
5585;SDS011;2815;54.094;12.112;2022-10-16T14:26:56;1.48;;;0.50;;
5585;SDS011;2815;54.094;12.112;2022-10-16T14:29:24;1.05;;;0.40;;
5585;SDS011;2815;54.094;12.112;2022-10-16T14:31:54;2.75;;;0.80;;
5585;SDS011;2815;54.094;12.112;2022-10-16T14:34:23;4.22;;;0.60;;
5585;SDS011;2815;54.094;12.112;2022-10-16T14:36:57;1.88;;;0.50;;
5585;SDS011;2815;54.094;12.112;2022-10-16T14:39:27;2.42;;;0.55;;
5585;SDS011;2815;54.094;12.112;2022-10-16T14:41:57;2.78;;;0.80;;
5585;SDS011;2815;54.094;12.112;2022-10-16T14:44:27;3.28;;;0.60;;
5585;SDS011;2815;54.094;12.112;2022-10-16T14:46:57;2.15;;;0.60;;
5585;SDS011;2815;54.094;12.112;2022-10-16T14:49:26;3.33;;;0.57;;
5585;SDS011;2815;54.094;12.112;2022-10-16T14:51:54;1.48;;;0.50;;
5585;SDS011;2815;54.094;12.112;2022-10-16T14:54:23;2.92;;;0.57;;
5585;SDS011;2815;54.094;12.112;2022-10-16T14:56:51;2.55;;;0.60;;
5585;SDS011;2815;54.094;12.112;2022-10-16T14:59:24;3.72;;;0.70;;
5585;SDS011;2815;54.094;12.112;2022-10-16T15:01:58;5.53;;;0.82;;
5585;SDS011;2815;54.094;12.112;2022-10-16T15:04:26;2.58;;;0.75;;
5585;SDS011;2815;54.094;12.112;2022-10-16T15:06:53;2.17;;;0.68;;
5585;SDS011;2815;54.094;12.112;2022-10-16T15:09:21;3.88;;;0.90;;
5585;SDS011;2815;54.094;12.112;2022-10-16T15:11:49;2.72;;;0.57;;
5585;SDS011;2815;54.094;12.112;2022-10-16T15:14:17;4.15;;;0.80;;
5585;SDS011;2815;54.094;12.112;2022-10-16T15:16:46;1.63;;;0.47;;
5585;SDS011;2815;54.094;12.112;2022-10-16T15:19:14;2.30;;;0.60;;
5585;SDS011;2815;54.094;12.112;2022-10-16T15:21:42;0.82;;;0.40;;
5585;SDS011;2815;54.094;12.112;2022-10-16T15:24:12;4.53;;;0.70;;
5585;SDS011;2815;54.094;12.112;2022-10-16T15:26:46;3.92;;;1.02;;
5585;SDS011;2815;54.094;12.112;2022-10-16T15:29:15;3.63;;;1.35;;
5585;SDS011;2815;54.094;12.112;2022-10-16T15:31:43;5.20;;;1.30;;
5585;SDS011;2815;54.094;12.112;2022-10-16T15:34:15;5.22;;;1.30;;
5585;SDS011;2815;54.094;12.112;2022-10-16T15:36:44;2.75;;;0.93;;
5585;SDS011;2815;54.094;12.112;2022-10-16T15:39:13;1.67;;;0.75;;
5585;SDS011;2815;54.094;12.112;2022-10-16T15:41:42;1.98;;;0.88;;
5585;SDS011;2815;54.094;12.112;2022-10-16T15:44:10;3.53;;;0.90;;